createdAt,value
2019-05-21T00:00:28.159Z,12.53
2019-05-21T00:02:59.811Z,11.63
2019-05-21T00:05:32.177Z,12.13
2019-05-21T00:08:04.146Z,12.50
2019-05-21T00:10:35.879Z,11.10
2019-05-21T00:13:07.448Z,17.70
2019-05-21T00:15:39.494Z,12.58
2019-05-21T00:18:10.993Z,13.35
2019-05-21T00:20:42.241Z,11.90
2019-05-21T00:23:14.004Z,11.97
2019-05-21T00:25:45.372Z,10.63
2019-05-21T00:28:37.910Z,10.60
2019-05-21T00:31:45.204Z,10.00
2019-05-21T00:34:52.491Z,10.93
2019-05-21T00:38:00.051Z,12.47
2019-05-21T00:41:09.356Z,10.72
2019-05-21T00:43:53.437Z,12.73
2019-05-21T00:46:25.185Z,13.28
2019-05-21T00:48:57.121Z,11.38
2019-05-21T00:51:28.517Z,10.68
2019-05-21T00:53:59.832Z,12.25
2019-05-21T00:56:32.683Z,12.23
2019-05-21T00:59:03.986Z,14.20
2019-05-21T01:01:35.298Z,14.65
2019-05-21T01:04:06.616Z,13.53
2019-05-21T01:06:38.501Z,13.20
2019-05-21T01:09:10.289Z,11.73
2019-05-21T01:11:41.680Z,10.78
2019-05-21T01:14:16.226Z,12.90
2019-05-21T01:16:47.774Z,11.22
2019-05-21T01:19:19.270Z,11.93
2019-05-21T01:21:51.132Z,13.62
2019-05-21T01:24:22.690Z,11.35
2019-05-21T01:26:54.076Z,10.18
2019-05-21T01:29:25.963Z,12.47
2019-05-21T01:31:58.330Z,13.55
2019-05-21T01:34:29.847Z,12.45
2019-05-21T01:37:01.519Z,12.00
2019-05-21T01:39:33.162Z,11.80
2019-05-21T01:42:04.559Z,12.25
2019-05-21T01:44:35.864Z,14.30
2019-05-21T01:47:07.430Z,12.00
2019-05-21T01:49:38.799Z,11.55
2019-05-21T01:52:10.328Z,13.93
2019-05-21T01:54:42.167Z,12.85
2019-05-21T01:57:13.768Z,13.62
2019-05-21T01:59:45.165Z,12.93
2019-05-21T02:02:16.692Z,12.47
2019-05-21T02:04:48.152Z,10.50
2019-05-21T02:07:19.624Z,14.13
2019-05-21T02:10:00.178Z,13.85
2019-05-21T02:12:32.784Z,12.58
2019-05-21T02:15:04.583Z,12.93
2019-05-21T02:17:36.964Z,12.35
2019-05-21T02:20:08.837Z,13.38
2019-05-21T02:22:40.890Z,12.10
2019-05-21T02:25:13.041Z,12.07
2019-05-21T02:27:44.529Z,14.40
2019-05-21T02:30:16.287Z,13.85
2019-05-21T02:32:49.441Z,14.25
2019-05-21T02:35:21.001Z,13.18
2019-05-21T02:37:52.606Z,11.97
2019-05-21T02:40:24.143Z,13.68
2019-05-21T02:42:55.544Z,14.85
2019-05-21T02:45:26.891Z,13.05
2019-05-21T02:47:58.410Z,13.70
2019-05-21T02:50:30.083Z,11.63
2019-05-21T02:53:01.732Z,14.98
2019-05-21T02:55:33.199Z,14.03
2019-05-21T02:58:04.903Z,14.28
2019-05-21T03:00:54.232Z,13.68
2019-05-21T03:03:28.630Z,11.53
2019-05-21T03:06:13.154Z,12.07
2019-05-21T03:08:33.360Z,14.20
2019-05-21T03:11:05.668Z,13.98
2019-05-21T03:13:37.145Z,16.32
2019-05-21T03:16:08.511Z,12.25
2019-05-21T03:18:39.903Z,15.18
2019-05-21T03:21:11.279Z,15.60
2019-05-21T03:23:42.884Z,14.75
2019-05-21T03:26:14.267Z,18.23
2019-05-21T03:28:46.765Z,18.57
2019-05-21T03:31:18.130Z,16.62
2019-05-21T03:33:49.726Z,19.37
2019-05-21T03:36:32.492Z,46.23
2019-05-21T03:38:54.187Z,74.50
2019-05-21T03:41:25.756Z,60.05
2019-05-21T03:43:57.351Z,63.00
2019-05-21T03:46:28.949Z,50.58
2019-05-21T03:49:00.705Z,43.58
2019-05-21T03:51:32.179Z,44.63
2019-05-21T03:54:04.150Z,47.67
2019-05-21T03:56:35.490Z,53.85
2019-05-21T03:59:07.958Z,50.03
2019-05-21T04:01:39.292Z,43.70
2019-05-21T04:04:10.868Z,42.38
2019-05-21T04:06:51.875Z,38.70
2019-05-21T04:09:15.728Z,40.23
2019-05-21T04:11:47.246Z,34.53
2019-05-21T04:14:43.971Z,31.70
2019-05-21T04:17:26.162Z,33.63
2019-05-21T04:19:57.563Z,38.10
2019-05-21T04:22:28.814Z,30.82
2019-05-21T04:25:00.786Z,31.82
2019-05-21T04:27:33.663Z,26.85
2019-05-21T04:30:10.599Z,28.35
2019-05-21T04:32:40.240Z,22.60
2019-05-21T04:35:11.857Z,22.55
2019-05-21T04:37:43.929Z,23.87
2019-05-21T04:40:15.558Z,26.33
2019-05-21T04:42:47.053Z,24.35
2019-05-21T04:45:18.854Z,20.88
2019-05-21T04:47:50.382Z,23.47
2019-05-21T04:50:22.091Z,26.48
2019-05-21T04:52:53.688Z,20.32
2019-05-21T04:55:25.086Z,21.17
2019-05-21T04:57:56.576Z,18.07
2019-05-21T05:00:27.910Z,21.75
2019-05-21T05:03:01.396Z,18.32
2019-05-21T05:05:33.055Z,22.67
2019-05-21T05:08:05.323Z,20.25
2019-05-21T05:10:36.803Z,20.12
2019-05-21T05:13:08.197Z,18.45
2019-05-21T05:15:39.740Z,17.50
2019-05-21T05:18:11.325Z,19.77
2019-05-21T05:20:42.944Z,17.98
2019-05-21T05:23:14.585Z,16.95
2019-05-21T05:25:45.994Z,18.00
2019-05-21T05:28:18.863Z,14.05
2019-05-21T05:30:50.179Z,16.90
2019-05-21T05:33:21.609Z,17.37
2019-05-21T05:35:52.939Z,19.20
2019-05-21T05:38:24.289Z,15.00
2019-05-21T05:40:55.636Z,19.30
2019-05-21T05:43:27.005Z,16.65
2019-05-21T05:45:58.363Z,17.85
2019-05-21T05:48:31.922Z,21.93
2019-05-21T05:51:05.075Z,18.42
2019-05-21T05:53:55.377Z,20.12
2019-05-21T05:56:27.770Z,22.93
2019-05-21T05:58:59.305Z,18.12
2019-05-21T06:01:32.723Z,20.25
2019-05-21T06:04:04.141Z,20.65
2019-05-21T06:06:35.743Z,25.60
2019-05-21T06:09:07.617Z,30.37
2019-05-21T06:11:38.990Z,23.57
2019-05-21T06:14:10.474Z,25.88
2019-05-21T06:16:42.126Z,31.17
2019-05-21T06:19:13.496Z,29.23
2019-05-21T06:21:44.901Z,27.58
2019-05-21T06:24:16.358Z,25.48
2019-05-21T06:26:47.665Z,26.90
2019-05-21T06:29:19.212Z,26.12
2019-05-21T06:31:50.859Z,32.58
2019-05-21T06:34:22.283Z,34.40
2019-05-21T06:36:53.771Z,35.75
2019-05-21T06:39:25.132Z,41.92
2019-05-21T06:41:56.907Z,41.58
2019-05-21T06:44:28.545Z,41.53
2019-05-21T06:47:00.537Z,49.50
2019-05-21T06:49:31.950Z,48.08
2019-05-21T06:52:03.654Z,42.60
2019-05-21T06:54:35.194Z,43.80
2019-05-21T06:57:06.416Z,42.15
2019-05-21T06:59:37.838Z,42.10
2019-05-21T07:02:09.451Z,44.93
2019-05-21T07:04:40.734Z,39.95
2019-05-21T07:07:12.296Z,42.55
2019-05-21T07:09:43.810Z,46.55
2019-05-21T07:12:15.199Z,44.00
2019-05-21T07:14:46.728Z,50.75
2019-05-21T07:17:18.576Z,41.28
2019-05-21T07:19:50.013Z,43.45
2019-05-21T07:22:34.810Z,50.15
2019-05-21T07:25:02.075Z,55.17
2019-05-21T07:27:33.835Z,60.40
2019-05-21T07:30:05.841Z,66.72
2019-05-21T07:32:37.530Z,58.05
2019-05-21T07:35:09.649Z,57.43
2019-05-21T07:37:41.238Z,53.55
2019-05-21T07:40:13.198Z,58.98
2019-05-21T07:42:44.817Z,63.30
2019-05-21T07:45:17.916Z,59.08
2019-05-21T07:47:49.221Z,51.65
2019-05-21T07:50:20.659Z,58.73
2019-05-21T07:52:52.041Z,54.20
2019-05-21T07:55:24.008Z,55.10
2019-05-21T07:57:55.398Z,51.13
2019-05-21T08:00:27.886Z,55.23
2019-05-21T08:02:59.235Z,47.65
2019-05-21T08:05:30.825Z,54.60
2019-05-21T08:08:02.636Z,45.00
2019-05-21T08:10:34.410Z,45.90
2019-05-21T08:13:05.910Z,49.60
2019-05-21T08:15:37.278Z,44.00
2019-05-21T08:18:08.590Z,42.33
2019-05-21T08:20:40.172Z,42.60
2019-05-21T08:23:11.708Z,44.60
2019-05-21T08:25:43.411Z,40.03
2019-05-21T08:28:14.928Z,40.98
2019-05-21T08:30:47.390Z,43.83
2019-05-21T08:33:19.646Z,44.35
2019-05-21T08:35:52.892Z,40.33
2019-05-21T08:38:25.350Z,43.45
2019-05-21T08:40:56.554Z,40.30
2019-05-21T08:43:27.914Z,39.80
2019-05-21T08:45:59.207Z,42.85
2019-05-21T08:48:31.297Z,37.40
2019-05-21T08:51:02.769Z,39.05
2019-05-21T08:53:35.138Z,37.05
2019-05-21T08:56:06.947Z,40.95
2019-05-21T08:58:38.172Z,40.73
2019-05-21T09:01:09.632Z,39.25
2019-05-21T09:03:41.042Z,33.42
2019-05-21T09:06:12.708Z,35.52
2019-05-21T09:08:43.960Z,35.48
2019-05-21T09:11:15.348Z,36.85
2019-05-21T09:13:46.771Z,34.92
2019-05-21T09:16:18.182Z,36.13
2019-05-21T09:18:51.287Z,32.40
2019-05-21T09:21:22.805Z,31.80
2019-05-21T09:23:57.096Z,34.27
2019-05-21T09:26:28.514Z,37.90
2019-05-21T09:29:00.093Z,31.82
2019-05-21T09:31:31.584Z,27.05
2019-05-21T09:34:04.614Z,23.67
2019-05-21T09:36:36.470Z,24.15
2019-05-21T09:39:08.167Z,24.80
2019-05-21T09:41:39.903Z,16.77
2019-05-21T09:44:11.528Z,24.30
2019-05-21T09:46:43.356Z,25.65
2019-05-21T09:49:15.091Z,25.32
2019-05-21T09:51:46.377Z,22.60
2019-05-21T09:54:18.923Z,30.75
2019-05-21T09:56:50.437Z,29.52
2019-05-21T09:59:28.441Z,19.37
2019-05-21T10:02:04.642Z,29.05
2019-05-21T10:04:36.037Z,19.73
2019-05-21T10:07:07.298Z,25.15
2019-05-21T10:09:38.663Z,19.80
2019-05-21T10:12:10.226Z,16.82
2019-05-21T10:14:41.710Z,15.63
2019-05-21T10:17:16.575Z,17.00
2019-05-21T10:19:47.905Z,18.15
2019-05-21T10:22:20.349Z,16.65
2019-05-21T10:24:51.831Z,12.03
2019-05-21T10:27:23.215Z,11.97
2019-05-21T10:29:54.858Z,17.55
2019-05-21T10:32:26.139Z,13.32
2019-05-21T10:34:57.690Z,17.00
2019-05-21T10:37:29.458Z,11.85
2019-05-21T10:40:01.163Z,15.55
2019-05-21T10:42:32.781Z,14.60
2019-05-21T10:45:04.929Z,13.55
2019-05-21T10:47:36.370Z,12.70
2019-05-21T10:50:08.196Z,9.93
2019-05-21T10:52:39.751Z,13.78
2019-05-21T10:55:16.460Z,14.00
2019-05-21T10:57:47.707Z,11.43
2019-05-21T11:00:22.950Z,11.10
2019-05-21T11:03:04.855Z,13.28
2019-05-21T11:05:38.613Z,12.80
2019-05-21T11:08:23.330Z,11.33
2019-05-21T11:10:43.227Z,11.03
2019-05-21T11:13:14.996Z,10.90
2019-05-21T11:15:46.594Z,7.75
2019-05-21T11:18:18.210Z,13.53
2019-05-21T11:20:49.785Z,9.93
2019-05-21T11:23:21.106Z,14.38
2019-05-21T11:25:52.982Z,13.45
2019-05-21T11:28:24.473Z,11.75
2019-05-21T11:30:55.869Z,8.90
2019-05-21T11:33:27.554Z,9.45
2019-05-21T11:36:03.104Z,9.98
2019-05-21T11:38:40.066Z,10.82
2019-05-21T11:41:07.496Z,9.60
2019-05-21T11:43:39.120Z,12.03
2019-05-21T11:46:10.378Z,11.63
2019-05-21T11:48:41.767Z,10.03
2019-05-21T11:51:13.570Z,11.18
2019-05-21T11:53:45.230Z,8.48
2019-05-21T11:56:16.696Z,14.40
2019-05-21T11:58:49.201Z,8.30
2019-05-21T12:01:20.468Z,12.37
2019-05-21T12:03:52.001Z,10.88
2019-05-21T12:06:23.298Z,13.83
2019-05-21T12:08:57.131Z,14.03
2019-05-21T12:11:27.775Z,11.20
2019-05-21T12:13:59.350Z,8.98
2019-05-21T12:16:30.937Z,6.40
2019-05-21T12:19:02.206Z,9.80
2019-05-21T12:21:33.580Z,7.22
2019-05-21T12:24:05.472Z,12.88
2019-05-21T12:26:36.944Z,9.10
2019-05-21T12:29:08.398Z,7.58
2019-05-21T12:31:40.081Z,9.85
2019-05-21T12:34:11.756Z,6.97
2019-05-21T12:36:43.301Z,6.83
2019-05-21T12:39:15.102Z,15.65
2019-05-21T12:41:46.618Z,10.18
2019-05-21T12:44:17.867Z,6.78
2019-05-21T12:46:49.364Z,9.35
2019-05-21T12:49:20.726Z,7.58
2019-05-21T12:51:52.297Z,8.70
2019-05-21T12:54:23.803Z,6.62
2019-05-21T12:56:55.155Z,6.70
2019-05-21T12:59:26.426Z,5.28
2019-05-21T13:01:57.769Z,8.35
2019-05-21T13:04:30.171Z,10.65
2019-05-21T13:07:01.885Z,6.35
2019-05-21T13:09:33.375Z,6.78
2019-05-21T13:12:05.954Z,8.50
2019-05-21T13:14:37.426Z,8.15
2019-05-21T13:17:08.785Z,7.90
2019-05-21T13:19:40.131Z,22.45
2019-05-21T13:22:11.704Z,13.28
2019-05-21T13:24:43.467Z,9.53
2019-05-21T13:27:14.862Z,8.00
2019-05-21T13:29:46.680Z,7.62
2019-05-21T13:32:18.161Z,8.75
2019-05-21T13:34:49.784Z,9.40
2019-05-21T13:37:22.575Z,7.92
2019-05-21T13:39:54.548Z,9.78
2019-05-21T13:42:26.008Z,17.77
2019-05-21T13:44:58.610Z,7.17
2019-05-21T13:47:30.309Z,7.87
2019-05-21T13:50:05.513Z,8.63
2019-05-21T13:52:37.287Z,7.97
2019-05-21T13:55:09.163Z,7.55
2019-05-21T13:57:40.556Z,5.25
2019-05-21T14:00:18.041Z,11.30
2019-05-21T14:02:51.102Z,5.90
2019-05-21T14:05:24.538Z,7.53
2019-05-21T14:07:55.942Z,8.78
2019-05-21T14:10:28.181Z,10.25
2019-05-21T14:12:59.798Z,8.33
2019-05-21T14:15:31.526Z,11.88
2019-05-21T14:18:03.164Z,8.05
2019-05-21T14:20:34.629Z,8.03
2019-05-21T14:23:06.316Z,10.98
2019-05-21T14:25:37.901Z,9.40
2019-05-21T14:28:09.581Z,13.22
2019-05-21T14:30:41.070Z,6.22
2019-05-21T14:33:12.619Z,8.05
2019-05-21T14:35:44.185Z,5.75
2019-05-21T14:38:15.734Z,5.58
2019-05-21T14:40:47.225Z,8.05
2019-05-21T14:43:18.604Z,6.42
2019-05-21T14:45:49.986Z,6.50
2019-05-21T14:48:21.426Z,6.28
2019-05-21T14:50:52.894Z,8.28
2019-05-21T14:53:26.010Z,5.30
2019-05-21T14:55:57.414Z,6.60
2019-05-21T14:58:29.073Z,6.22
2019-05-21T15:01:00.590Z,4.15
2019-05-21T15:03:31.875Z,4.58
2019-05-21T15:06:03.166Z,5.35
2019-05-21T15:08:34.859Z,6.33
2019-05-21T15:11:06.132Z,9.10
2019-05-21T15:13:37.826Z,5.20
2019-05-21T15:16:09.204Z,6.65
2019-05-21T15:18:41.506Z,6.05
2019-05-21T15:21:18.782Z,5.30
2019-05-21T15:23:50.263Z,5.22
2019-05-21T15:26:22.712Z,12.05
2019-05-21T15:28:54.090Z,11.83
2019-05-21T15:31:25.789Z,14.25
2019-05-21T15:33:57.535Z,7.53
2019-05-21T15:36:28.799Z,12.47
2019-05-21T15:39:00.358Z,10.80
2019-05-21T15:41:32.571Z,12.15
2019-05-21T15:44:04.788Z,12.13
2019-05-21T15:46:47.793Z,14.78
2019-05-21T15:49:10.561Z,11.57
2019-05-21T15:51:42.116Z,13.43
2019-05-21T15:54:13.507Z,11.88
2019-05-21T15:56:44.825Z,13.32
2019-05-21T15:59:17.196Z,12.03
2019-05-21T16:01:48.847Z,11.20
2019-05-21T16:04:20.103Z,10.05
2019-05-21T16:06:51.572Z,9.68
2019-05-21T16:09:23.405Z,10.82
2019-05-21T16:11:56.973Z,10.65
2019-05-21T16:14:29.582Z,11.93
2019-05-21T16:17:01.047Z,11.08
2019-05-21T16:19:32.368Z,14.95
2019-05-21T16:22:03.636Z,16.40
2019-05-21T16:24:35.410Z,16.95
2019-05-21T16:27:06.805Z,12.00
2019-05-21T16:29:38.101Z,13.40
2019-05-21T16:32:09.568Z,13.43
2019-05-21T16:34:42.204Z,12.90
2019-05-21T16:37:14.602Z,11.03
2019-05-21T16:39:45.905Z,14.05
2019-05-21T16:42:18.335Z,16.80
2019-05-21T16:44:49.969Z,16.60
2019-05-21T16:47:21.242Z,21.52
2019-05-21T16:49:53.924Z,15.40
2019-05-21T16:52:26.377Z,18.27
2019-05-21T16:54:57.750Z,14.90
2019-05-21T16:57:29.374Z,20.23
2019-05-21T17:00:00.651Z,17.35
2019-05-21T17:02:33.998Z,16.27
2019-05-21T17:05:05.686Z,19.95
2019-05-21T17:07:37.004Z,20.15
2019-05-21T17:10:08.798Z,18.17
2019-05-21T17:12:40.306Z,15.23
2019-05-21T17:15:12.125Z,16.02
2019-05-21T17:17:45.063Z,19.73
2019-05-21T17:20:17.587Z,19.23
2019-05-21T17:22:48.901Z,19.32
2019-05-21T17:25:20.411Z,13.72
2019-05-21T17:27:52.011Z,16.65
2019-05-21T17:30:23.882Z,14.28
2019-05-21T17:32:55.418Z,12.60
2019-05-21T17:35:26.978Z,13.32
2019-05-21T17:38:00.856Z,13.50
2019-05-21T17:40:32.975Z,11.40
2019-05-21T17:43:06.013Z,16.27
2019-05-21T17:45:37.310Z,13.72
2019-05-21T17:48:08.661Z,16.57
2019-05-21T17:50:40.157Z,15.58
2019-05-21T17:53:13.128Z,15.08
2019-05-21T17:55:44.925Z,12.63
2019-05-21T17:58:16.454Z,15.45
2019-05-21T18:00:54.200Z,15.58
2019-05-21T18:03:25.798Z,12.33
2019-05-21T18:05:58.288Z,12.93
2019-05-21T18:08:30.264Z,13.30
2019-05-21T18:11:02.229Z,9.60
2019-05-21T18:13:33.981Z,16.07
2019-05-21T18:16:07.134Z,18.50
2019-05-21T18:18:39.292Z,15.53
2019-05-21T18:21:11.147Z,19.40
2019-05-21T18:23:43.298Z,18.90
2019-05-21T18:26:15.100Z,20.43
2019-05-21T18:28:46.389Z,19.57
2019-05-21T18:31:18.536Z,14.43
2019-05-21T18:33:50.705Z,16.60
2019-05-21T18:36:22.193Z,18.52
2019-05-21T18:38:53.888Z,16.55
2019-05-21T18:41:25.440Z,19.07
2019-05-21T18:43:56.818Z,13.68
2019-05-21T18:46:28.222Z,12.73
2019-05-21T18:48:59.609Z,13.00
2019-05-21T18:51:31.650Z,12.60
2019-05-21T18:54:03.161Z,13.98
2019-05-21T18:56:34.748Z,12.35
2019-05-21T18:59:06.245Z,13.93
2019-05-21T19:01:38.531Z,12.88
2019-05-21T19:04:10.341Z,10.98
2019-05-21T19:06:42.292Z,12.53
2019-05-21T19:09:15.720Z,13.75
2019-05-21T19:11:47.277Z,12.78
2019-05-21T19:14:18.552Z,13.72
2019-05-21T19:16:49.962Z,11.88
2019-05-21T19:19:21.668Z,14.40
2019-05-21T19:21:53.045Z,12.28
2019-05-21T19:24:25.035Z,12.33
2019-05-21T19:26:56.414Z,11.12
2019-05-21T19:29:27.730Z,14.55
2019-05-21T19:31:59.036Z,14.55
2019-05-21T19:34:30.598Z,10.78
2019-05-21T19:37:03.129Z,13.50
2019-05-21T19:39:36.194Z,11.88
2019-05-21T19:42:07.798Z,14.83
2019-05-21T19:44:39.307Z,11.97
2019-05-21T19:47:10.856Z,12.35
2019-05-21T19:49:43.082Z,11.38
2019-05-21T19:52:32.563Z,13.38
2019-05-21T19:55:03.645Z,13.78
2019-05-21T19:57:36.142Z,13.88
2019-05-21T20:00:08.484Z,17.98
2019-05-21T20:02:42.328Z,17.05
2019-05-21T20:05:14.611Z,15.78
2019-05-21T20:07:46.275Z,16.25
2019-05-21T20:10:20.398Z,18.10
2019-05-21T20:12:52.074Z,19.10
2019-05-21T20:15:35.122Z,18.77
2019-05-21T20:18:07.886Z,17.92
2019-05-21T20:20:40.191Z,14.38
2019-05-21T20:23:13.360Z,18.40
2019-05-21T20:25:56.163Z,17.48
2019-05-21T20:28:19.361Z,16.42
2019-05-21T20:30:51.624Z,17.42
2019-05-21T20:33:24.317Z,20.25
2019-05-21T20:35:57.469Z,18.67
2019-05-21T20:38:30.002Z,19.67
2019-05-21T20:41:01.514Z,17.32
2019-05-21T20:43:33.713Z,19.27
2019-05-21T20:46:07.447Z,18.67
2019-05-21T20:48:41.073Z,20.62
2019-05-21T20:51:12.555Z,19.27
2019-05-21T20:53:45.508Z,20.85
2019-05-21T20:56:18.573Z,24.52
2019-05-21T20:58:50.188Z,21.65
2019-05-21T21:01:21.626Z,22.93
2019-05-21T21:03:53.613Z,21.73
2019-05-21T21:06:35.253Z,21.60
2019-05-21T21:09:00.009Z,20.00
2019-05-21T21:11:32.590Z,22.00
2019-05-21T21:14:17.532Z,18.42
2019-05-21T21:16:38.077Z,17.90
2019-05-21T21:19:09.541Z,17.20
2019-05-21T21:21:41.220Z,19.10
2019-05-21T21:24:13.573Z,19.12
2019-05-21T21:26:45.477Z,19.17
2019-05-21T21:29:16.865Z,16.75
2019-05-21T21:31:48.700Z,19.27
2019-05-21T21:34:20.454Z,22.90
2019-05-21T21:36:53.256Z,18.87
2019-05-21T21:39:26.037Z,16.90
2019-05-21T21:41:59.473Z,19.85
2019-05-21T21:44:34.077Z,19.67
2019-05-21T21:47:04.339Z,18.42
2019-05-21T21:49:37.463Z,21.17
2019-05-21T21:52:09.921Z,19.57
2019-05-21T21:54:42.689Z,16.25
2019-05-21T21:57:14.454Z,20.00
2019-05-21T21:59:45.841Z,20.08
2019-05-21T22:02:26.721Z,19.07
2019-05-21T22:05:01.401Z,18.92
2019-05-21T22:07:37.537Z,20.68
2019-05-21T22:10:09.432Z,22.05
2019-05-21T22:12:41.383Z,20.70
2019-05-21T22:15:14.046Z,20.48
2019-05-21T22:17:47.232Z,20.57
2019-05-21T22:20:18.716Z,19.02
2019-05-21T22:22:50.264Z,20.85
2019-05-21T22:25:22.128Z,20.88
2019-05-21T22:27:53.772Z,20.62
2019-05-21T22:30:27.102Z,24.98
2019-05-21T22:32:58.285Z,22.67
2019-05-21T22:35:29.622Z,20.72
2019-05-21T22:38:01.260Z,22.65
2019-05-21T22:40:32.692Z,21.12
2019-05-21T22:43:04.125Z,24.70
2019-05-21T22:45:36.653Z,21.70
2019-05-21T22:48:08.673Z,23.30
2019-05-21T22:50:40.207Z,22.77
2019-05-21T22:53:12.530Z,23.67
2019-05-21T22:55:44.455Z,20.72
2019-05-21T22:58:15.886Z,24.43
2019-05-21T23:00:47.925Z,17.35
2019-05-21T23:03:20.627Z,19.95
2019-05-21T23:05:59.564Z,21.82
2019-05-21T23:08:31.749Z,22.87
2019-05-21T23:11:03.196Z,21.90
2019-05-21T23:13:35.694Z,21.55
2019-05-21T23:16:07.975Z,20.82
2019-05-21T23:18:57.989Z,21.25
2019-05-21T23:21:34.309Z,25.17
2019-05-21T23:24:07.288Z,20.12
2019-05-21T23:26:39.670Z,20.55
2019-05-21T23:29:12.647Z,21.77
2019-05-21T23:31:44.754Z,21.80
2019-05-21T23:34:18.025Z,20.97
2019-05-21T23:36:51.585Z,20.10
2019-05-21T23:39:26.411Z,19.20
2019-05-21T23:41:57.963Z,24.60
2019-05-21T23:44:29.735Z,25.70
2019-05-21T23:47:03.192Z,20.00
2019-05-21T23:49:34.598Z,20.40
2019-05-21T23:52:07.760Z,23.02
2019-05-21T23:54:39.315Z,25.17
2019-05-21T23:57:16.182Z,24.75
2019-05-21T23:59:48.046Z,19.07
